createdAt,value
2023-02-19T00:01:28.817Z,95379.81
2023-02-19T00:03:58.057Z,95386.31
2023-02-19T00:06:26.819Z,95390.56
2023-02-19T00:08:53.923Z,95388.72
2023-02-19T00:11:23.030Z,95365.78
2023-02-19T00:13:52.694Z,95382.31
2023-02-19T00:16:25.540Z,95369.09
2023-02-19T00:18:53.748Z,95375.66
2023-02-19T00:21:20.506Z,95381.97
2023-02-19T00:23:55.718Z,95379.41
2023-02-19T00:26:22.724Z,95378.84
2023-02-19T00:28:51.691Z,95382.22
2023-02-19T00:31:27.745Z,95370.00
2023-02-19T00:34:01.503Z,95356.19
2023-02-19T00:36:28.992Z,95338.28
2023-02-19T00:38:55.732Z,95372.25
2023-02-19T00:41:24.188Z,95375.69
2023-02-19T00:43:56.702Z,95356.50
2023-02-19T00:46:29.249Z,95362.00
2023-02-19T00:48:56.789Z,95366.22
2023-02-19T00:51:27.014Z,95356.06
2023-02-19T00:53:54.365Z,95344.66
2023-02-19T00:56:21.681Z,95347.44
2023-02-19T00:58:49.182Z,95345.03
2023-02-19T01:01:16.585Z,95316.53
2023-02-19T01:03:45.096Z,95352.56
2023-02-19T01:06:13.900Z,95356.94
2023-02-19T01:08:40.923Z,95344.56
2023-02-19T01:11:09.313Z,95353.38
2023-02-19T01:13:36.941Z,95360.19
2023-02-19T01:16:24.850Z,95352.34
2023-02-19T01:18:52.277Z,95345.25
2023-02-19T01:21:22.067Z,95344.53
2023-02-19T01:23:50.328Z,95342.59
2023-02-19T01:26:20.018Z,95346.84
2023-02-19T01:28:47.570Z,95345.97
2023-02-19T01:31:17.155Z,95353.59
2023-02-19T01:33:48.762Z,95362.31
2023-02-19T01:36:16.152Z,95355.59
2023-02-19T01:38:43.800Z,95347.72
2023-02-19T01:41:13.710Z,95370.31
2023-02-19T01:44:01.224Z,95376.88
2023-02-19T01:46:33.241Z,95372.44
2023-02-19T01:49:24.185Z,95393.03
2023-02-19T01:51:57.172Z,95383.19
2023-02-19T01:54:28.595Z,95399.22
2023-02-19T01:56:56.952Z,95387.41
2023-02-19T01:59:24.998Z,95385.06
2023-02-19T02:01:52.643Z,95372.66
2023-02-19T02:04:19.682Z,95387.63
2023-02-19T02:06:57.150Z,95393.53
2023-02-19T02:09:46.492Z,95370.34
2023-02-19T02:12:13.954Z,95398.41
2023-02-19T02:14:45.211Z,95376.84
2023-02-19T02:17:12.517Z,95387.25
2023-02-19T02:20:05.310Z,95397.47
2023-02-19T02:22:32.118Z,95402.50
2023-02-19T02:25:14.238Z,95400.34
2023-02-19T02:27:49.466Z,95390.41
2023-02-19T02:30:19.669Z,95388.19
2023-02-19T02:32:57.678Z,95396.72
2023-02-19T02:35:39.858Z,95383.09
2023-02-19T02:38:10.015Z,95387.50
2023-02-19T02:40:41.528Z,95387.66
2023-02-19T02:43:08.696Z,95386.94
2023-02-19T02:45:35.816Z,95378.31
2023-02-19T02:48:26.769Z,95383.22
2023-02-19T02:51:00.320Z,95383.75
2023-02-19T02:54:03.330Z,95373.38
2023-02-19T02:56:31.561Z,95379.59
2023-02-19T02:59:00.909Z,95380.25
2023-02-19T03:01:52.214Z,95388.81
2023-02-19T03:04:27.406Z,95385.41
2023-02-19T03:06:57.114Z,95374.66
2023-02-19T03:09:32.227Z,95396.91
2023-02-19T03:12:22.232Z,95401.31
2023-02-19T03:15:13.398Z,95411.97
2023-02-19T03:18:06.532Z,95399.47
2023-02-19T03:20:39.012Z,95408.56
2023-02-19T03:23:09.383Z,95404.78
2023-02-19T03:25:57.253Z,95420.16
2023-02-19T03:28:58.055Z,95430.91
2023-02-19T03:31:29.700Z,95404.56
2023-02-19T03:34:06.972Z,95429.81
2023-02-19T03:36:52.847Z,95435.72
2023-02-19T03:39:23.366Z,95423.97
2023-02-19T03:42:04.173Z,95438.72
2023-02-19T03:44:44.369Z,95443.44
2023-02-19T03:47:23.064Z,95445.53
2023-02-19T03:49:52.105Z,95443.66
2023-02-19T03:52:47.303Z,95455.25
2023-02-19T03:55:19.314Z,95460.31
2023-02-19T03:58:08.070Z,95447.31
2023-02-19T04:00:54.546Z,95447.69
2023-02-19T04:03:31.509Z,95438.09
2023-02-19T04:06:05.809Z,95451.91
2023-02-19T04:08:36.244Z,95450.31
2023-02-19T04:11:06.421Z,95444.25
2023-02-19T04:13:44.509Z,95450.75
2023-02-19T04:16:17.972Z,95464.78
2023-02-19T04:18:48.921Z,95456.00
2023-02-19T04:21:16.150Z,95469.19
2023-02-19T04:23:45.454Z,95465.94
2023-02-19T04:26:15.267Z,95465.78
2023-02-19T04:28:44.171Z,95463.69
2023-02-19T04:31:11.699Z,95463.41
2023-02-19T04:33:38.840Z,95465.84
2023-02-19T04:36:07.449Z,95473.50
2023-02-19T04:38:34.488Z,95473.06
2023-02-19T04:41:01.128Z,95471.41
2023-02-19T04:43:27.891Z,95464.81
2023-02-19T04:45:54.895Z,95486.19
2023-02-19T04:48:21.895Z,95474.09
2023-02-19T04:50:48.623Z,95474.34
2023-02-19T04:53:15.486Z,95461.91
2023-02-19T04:55:42.127Z,95482.38
2023-02-19T04:58:08.916Z,95478.59
2023-02-19T05:00:35.773Z,95481.75
2023-02-19T05:03:02.736Z,95491.63
2023-02-19T05:05:29.708Z,95489.97
2023-02-19T05:07:56.416Z,95488.41
2023-02-19T05:10:23.231Z,95481.63
2023-02-19T05:12:50.013Z,95480.16
2023-02-19T05:15:16.718Z,95479.53
2023-02-19T05:17:43.597Z,95468.69
2023-02-19T05:20:10.673Z,95490.47
2023-02-19T05:22:43.249Z,95487.75
2023-02-19T05:25:10.032Z,95486.41
2023-02-19T05:27:37.904Z,95478.81
2023-02-19T05:30:05.040Z,95492.97
2023-02-19T05:32:32.001Z,95497.16
2023-02-19T05:34:58.830Z,95493.31
2023-02-19T05:37:25.579Z,95512.75
2023-02-19T05:39:52.481Z,95512.03
2023-02-19T05:42:19.212Z,95502.16
2023-02-19T05:44:46.097Z,95518.59
2023-02-19T05:47:13.144Z,95514.28
2023-02-19T05:49:40.047Z,95515.03
2023-02-19T05:52:06.899Z,95504.84
2023-02-19T05:54:33.748Z,95508.53
2023-02-19T05:57:00.624Z,95515.53
2023-02-19T05:59:27.788Z,95513.75
2023-02-19T06:01:55.819Z,95503.44
2023-02-19T06:04:23.485Z,95518.41
2023-02-19T06:06:50.471Z,95526.50
2023-02-19T06:09:17.700Z,95528.69
2023-02-19T06:11:44.766Z,95534.06
2023-02-19T06:14:14.615Z,95534.91
2023-02-19T06:16:42.366Z,95537.78
2023-02-19T06:19:09.140Z,95540.16
2023-02-19T06:21:36.092Z,95534.09
2023-02-19T06:24:07.812Z,95534.25
2023-02-19T06:26:34.981Z,95538.72
2023-02-19T06:29:01.918Z,95531.34
2023-02-19T06:31:28.956Z,95509.91
2023-02-19T06:33:55.997Z,95527.88
2023-02-19T06:36:23.322Z,95519.16
2023-02-19T06:38:50.502Z,95538.66
2023-02-19T06:41:18.158Z,95536.59
2023-02-19T06:43:46.475Z,95532.69
2023-02-19T06:46:13.736Z,95526.13
2023-02-19T06:48:42.089Z,95538.09
2023-02-19T06:51:12.963Z,95535.19
2023-02-19T06:53:39.889Z,95537.00
2023-02-19T06:56:22.512Z,95533.28
2023-02-19T06:58:49.418Z,95544.66
2023-02-19T07:01:16.264Z,95546.63
2023-02-19T07:03:43.239Z,95522.59
2023-02-19T07:06:10.099Z,95555.88
2023-02-19T07:08:37.142Z,95555.88
2023-02-19T07:11:03.992Z,95552.34
2023-02-19T07:13:31.134Z,95543.41
2023-02-19T07:16:00.247Z,95542.97
2023-02-19T07:18:27.619Z,95528.75
2023-02-19T07:20:54.464Z,95539.88
2023-02-19T07:23:21.631Z,95520.41
2023-02-19T07:25:48.494Z,95532.53
2023-02-19T07:28:16.449Z,95513.09
2023-02-19T07:30:44.341Z,95508.84
2023-02-19T07:33:11.144Z,95484.59
2023-02-19T07:35:37.937Z,95506.44
2023-02-19T07:38:04.851Z,95501.66
2023-02-19T07:40:32.622Z,95502.16
2023-02-19T07:43:00.625Z,95501.81
2023-02-19T07:45:27.424Z,95502.34
2023-02-19T07:47:54.122Z,95505.03
2023-02-19T07:50:20.995Z,95503.91
2023-02-19T07:52:47.782Z,95496.78
2023-02-19T07:55:14.402Z,95496.94
2023-02-19T07:57:41.269Z,95498.56
2023-02-19T08:00:08.251Z,95503.19
2023-02-19T08:02:57.623Z,95500.41
2023-02-19T08:05:24.536Z,95499.94
2023-02-19T08:07:51.272Z,95497.56
2023-02-19T08:10:36.460Z,95501.06
2023-02-19T08:13:22.560Z,95492.03
2023-02-19T08:16:07.541Z,95492.13
2023-02-19T08:18:41.922Z,95474.03
2023-02-19T08:21:09.022Z,95483.84
2023-02-19T08:23:36.623Z,95493.47
2023-02-19T08:26:03.784Z,95496.81
2023-02-19T08:28:31.140Z,95489.22
2023-02-19T08:31:08.344Z,95479.94
2023-02-19T08:33:36.120Z,95483.09
2023-02-19T08:36:06.673Z,95496.06
2023-02-19T08:38:35.965Z,95488.19
2023-02-19T08:41:12.994Z,95485.34
2023-02-19T08:43:42.600Z,95474.13
2023-02-19T08:46:11.710Z,95478.38
2023-02-19T08:48:39.886Z,95463.16
2023-02-19T08:51:09.793Z,95458.78
2023-02-19T08:53:39.612Z,95459.84
2023-02-19T08:56:07.601Z,95457.88
2023-02-19T08:58:34.340Z,95462.03
2023-02-19T09:01:01.320Z,95456.13
2023-02-19T09:03:28.072Z,95447.84
2023-02-19T09:05:54.924Z,95440.38
2023-02-19T09:08:21.655Z,95436.25
2023-02-19T09:11:01.805Z,95423.34
2023-02-19T09:13:28.627Z,95425.63
2023-02-19T09:15:57.187Z,95419.44
2023-02-19T09:18:25.362Z,95422.06
2023-02-19T09:20:52.278Z,95416.19
2023-02-19T09:23:19.128Z,95412.81
2023-02-19T09:25:45.951Z,95421.00
2023-02-19T09:28:12.810Z,95408.91
2023-02-19T09:30:39.612Z,95417.41
2023-02-19T09:33:06.529Z,95416.69
2023-02-19T09:35:33.306Z,95404.28
2023-02-19T09:38:02.012Z,95397.16
2023-02-19T09:40:30.408Z,95401.84
2023-02-19T09:42:57.628Z,95402.28
2023-02-19T09:45:26.293Z,95408.03
2023-02-19T09:47:56.134Z,95401.25
2023-02-19T09:50:36.924Z,95402.59
2023-02-19T09:53:11.395Z,95394.81
2023-02-19T09:55:43.691Z,95403.78
2023-02-19T09:58:27.228Z,95394.00
2023-02-19T10:00:57.081Z,95391.75
2023-02-19T10:03:33.764Z,95376.75
2023-02-19T10:06:24.714Z,95364.59
2023-02-19T10:09:26.978Z,95359.03
2023-02-19T10:11:59.014Z,95344.72
2023-02-19T10:14:35.766Z,95324.03
2023-02-19T10:17:05.436Z,95335.06
2023-02-19T10:19:34.469Z,95331.84
2023-02-19T10:22:04.230Z,95332.16
2023-02-19T10:24:31.189Z,95334.81
2023-02-19T10:26:58.045Z,95316.66
2023-02-19T10:29:24.989Z,95299.75
2023-02-19T10:32:24.082Z,95317.78
2023-02-19T10:35:21.112Z,95312.13
2023-02-19T10:37:50.920Z,95268.91
2023-02-19T10:40:20.942Z,95283.13
2023-02-19T10:42:54.077Z,95287.03
2023-02-19T10:45:27.808Z,95286.72
2023-02-19T10:47:54.778Z,95274.94
2023-02-19T10:50:33.065Z,95268.34
2023-02-19T10:53:02.070Z,95272.28
2023-02-19T10:55:37.715Z,95261.31
2023-02-19T10:58:29.330Z,95253.94
2023-02-19T11:01:21.564Z,95257.72
2023-02-19T11:03:50.976Z,95245.78
2023-02-19T11:06:21.462Z,95243.84
2023-02-19T11:09:00.041Z,95233.78
2023-02-19T11:11:39.162Z,95222.69
2023-02-19T11:14:15.840Z,95225.38
2023-02-19T11:16:56.540Z,95220.66
2023-02-19T11:19:37.760Z,95208.16
2023-02-19T11:22:54.096Z,95210.19
2023-02-19T11:25:25.628Z,95199.91
2023-02-19T11:27:59.326Z,95194.38
2023-02-19T11:30:35.556Z,95187.59
2023-02-19T11:33:19.902Z,95180.31
2023-02-19T11:35:47.475Z,95168.25
2023-02-19T11:38:17.582Z,95183.47
2023-02-19T11:41:15.144Z,95163.47
2023-02-19T11:43:57.243Z,95166.28
2023-02-19T11:46:49.021Z,95157.66
2023-02-19T11:49:53.823Z,95158.91
2023-02-19T11:52:26.912Z,95150.72
2023-02-19T11:55:12.589Z,95140.53
2023-02-19T11:58:01.705Z,95144.06
2023-02-19T12:00:31.015Z,95137.44
2023-02-19T12:03:38.874Z,95131.22
2023-02-19T12:06:19.813Z,95126.59
2023-02-19T12:08:55.684Z,95125.69
2023-02-19T12:11:55.646Z,95103.38
2023-02-19T12:14:22.444Z,95085.19
2023-02-19T12:16:52.367Z,95108.91
2023-02-19T12:19:42.258Z,95095.34
2023-02-19T12:22:29.583Z,95091.53
2023-02-19T12:25:49.215Z,95089.66
2023-02-19T12:28:35.410Z,95067.41
2023-02-19T12:31:47.485Z,95055.66
2023-02-19T12:34:42.233Z,95053.81
2023-02-19T12:37:10.036Z,95051.13
2023-02-19T12:40:02.305Z,95039.09
2023-02-19T12:42:56.755Z,95036.16
2023-02-19T12:45:35.616Z,95039.03
2023-02-19T12:48:10.886Z,95032.00
2023-02-19T12:50:40.296Z,95025.44
2023-02-19T12:53:31.750Z,95030.66
2023-02-19T12:56:01.298Z,95016.00
2023-02-19T12:58:39.560Z,95020.59
2023-02-19T13:01:10.423Z,95013.63
2023-02-19T13:04:04.939Z,95008.84
2023-02-19T13:06:36.548Z,94990.59
2023-02-19T13:09:13.734Z,94990.13
2023-02-19T13:11:48.312Z,94985.25
2023-02-19T13:14:25.379Z,94996.34
2023-02-19T13:16:57.799Z,94966.34
2023-02-19T13:19:24.811Z,94975.56
2023-02-19T13:22:22.056Z,94957.22
2023-02-19T13:24:50.665Z,94971.63
2023-02-19T13:27:19.984Z,94967.13
2023-02-19T13:30:12.101Z,94958.19
2023-02-19T13:32:52.642Z,94959.75
2023-02-19T13:35:32.538Z,94951.47
2023-02-19T13:38:04.184Z,94945.84
2023-02-19T13:40:37.003Z,94944.09
2023-02-19T13:43:06.950Z,94937.91
2023-02-19T13:45:45.911Z,94931.81
2023-02-19T13:48:24.654Z,94934.13
2023-02-19T13:51:17.350Z,94939.97
2023-02-19T13:53:50.391Z,94934.94
2023-02-19T13:56:35.541Z,94931.56
2023-02-19T13:59:30.426Z,94932.72
2023-02-19T14:01:57.232Z,94931.25
2023-02-19T14:04:51.942Z,94933.38
2023-02-19T14:07:18.716Z,94939.25
2023-02-19T14:09:47.029Z,94929.06
2023-02-19T14:12:15.725Z,94931.00
2023-02-19T14:14:44.903Z,94931.72
2023-02-19T14:17:26.497Z,94929.69
2023-02-19T14:19:53.275Z,94926.44
2023-02-19T14:22:56.925Z,94923.88
2023-02-19T14:25:38.454Z,94921.91
2023-02-19T14:28:16.817Z,94906.50
2023-02-19T14:31:10.468Z,94905.38
2023-02-19T14:33:40.272Z,94915.25
2023-02-19T14:36:44.129Z,94905.38
2023-02-19T14:39:24.569Z,94908.75
2023-02-19T14:41:58.916Z,94911.84
2023-02-19T14:44:29.274Z,94887.81
2023-02-19T14:47:05.479Z,94888.41
2023-02-19T14:49:45.948Z,94878.88
2023-02-19T14:52:25.106Z,94895.84
2023-02-19T14:54:59.916Z,94894.97
2023-02-19T14:57:41.642Z,94893.75
2023-02-19T15:00:27.144Z,94899.75
2023-02-19T15:02:56.733Z,94907.81
2023-02-19T15:05:30.064Z,94890.66
2023-02-19T15:08:02.842Z,94886.41
2023-02-19T15:10:32.256Z,94883.03
2023-02-19T15:13:06.021Z,94887.50
2023-02-19T15:15:40.850Z,94889.09
2023-02-19T15:18:07.613Z,94887.72
2023-02-19T15:20:37.234Z,94885.75
2023-02-19T15:23:07.707Z,94887.41
2023-02-19T15:25:39.519Z,94893.97
2023-02-19T15:28:21.101Z,94902.91
2023-02-19T15:30:48.008Z,94900.22
2023-02-19T15:33:19.928Z,94896.75
2023-02-19T15:35:55.964Z,94884.94
2023-02-19T15:38:23.567Z,94902.66
2023-02-19T15:40:50.577Z,94897.03
2023-02-19T15:43:25.200Z,94909.22
2023-02-19T15:45:57.769Z,94920.34
2023-02-19T15:48:30.853Z,94911.53
2023-02-19T15:51:09.426Z,94927.84
2023-02-19T15:53:45.426Z,94926.25
2023-02-19T15:56:28.274Z,94932.22
2023-02-19T15:59:02.139Z,94931.84
2023-02-19T16:01:34.452Z,94940.03
2023-02-19T16:04:03.323Z,94939.16
2023-02-19T16:06:30.629Z,94938.75
2023-02-19T16:09:19.401Z,94930.06
2023-02-19T16:11:54.479Z,94946.44
2023-02-19T16:14:32.996Z,94940.31
2023-02-19T16:17:12.315Z,94940.13
2023-02-19T16:19:45.337Z,94950.81
2023-02-19T16:22:16.145Z,94949.91
2023-02-19T16:24:49.321Z,94950.41
2023-02-19T16:27:30.659Z,94961.78
2023-02-19T16:29:58.453Z,94964.94
2023-02-19T16:32:25.264Z,94965.25
2023-02-19T16:34:52.764Z,94972.81
2023-02-19T16:37:59.137Z,94984.91
2023-02-19T16:40:55.179Z,94984.91
2023-02-19T16:43:30.492Z,94985.38
2023-02-19T16:45:58.923Z,94992.09
2023-02-19T16:48:26.171Z,94993.19
2023-02-19T16:50:53.054Z,94993.78
2023-02-19T16:53:24.829Z,95001.66
2023-02-19T16:55:52.363Z,95000.25
2023-02-19T16:58:19.320Z,95005.72
2023-02-19T17:00:46.339Z,95002.28
2023-02-19T17:03:19.831Z,95005.88
2023-02-19T17:05:47.739Z,95018.72
2023-02-19T17:08:20.373Z,95020.16
2023-02-19T17:10:47.238Z,95019.91
2023-02-19T17:13:13.955Z,95027.94
2023-02-19T17:15:40.804Z,95030.91
2023-02-19T17:18:10.617Z,95010.72
2023-02-19T17:20:38.976Z,95039.56
2023-02-19T17:23:05.798Z,95032.03
2023-02-19T17:25:32.775Z,95046.88
2023-02-19T17:27:59.581Z,95039.09
2023-02-19T17:30:31.482Z,95050.78
2023-02-19T17:32:58.380Z,95047.88
2023-02-19T17:35:25.839Z,95025.50
2023-02-19T17:37:53.537Z,95059.50
2023-02-19T17:40:33.048Z,95053.44
2023-02-19T17:43:00.845Z,95060.47
2023-02-19T17:45:27.827Z,95056.34
2023-02-19T17:47:54.669Z,95066.38
2023-02-19T17:50:24.041Z,95054.97
2023-02-19T17:52:50.765Z,95061.97
2023-02-19T17:55:18.454Z,95051.34
2023-02-19T17:57:49.640Z,95060.59
2023-02-19T18:00:25.786Z,95064.53
2023-02-19T18:02:53.019Z,95071.19
2023-02-19T18:05:20.175Z,95055.13
2023-02-19T18:07:48.234Z,95070.94
2023-02-19T18:10:20.522Z,95073.06
2023-02-19T18:12:47.635Z,95077.34
2023-02-19T18:15:20.621Z,95085.06
2023-02-19T18:17:47.453Z,95083.38
2023-02-19T18:20:26.517Z,95090.41
2023-02-19T18:22:54.399Z,95093.38
2023-02-19T18:25:21.907Z,95094.22
2023-02-19T18:27:49.405Z,95102.97
2023-02-19T18:30:19.126Z,95115.59
2023-02-19T18:32:50.064Z,95107.44
2023-02-19T18:35:19.543Z,95113.09
2023-02-19T18:37:52.956Z,95113.59
2023-02-19T18:40:26.018Z,95120.25
2023-02-19T18:42:53.391Z,95115.25
2023-02-19T18:45:20.105Z,95126.09
2023-02-19T18:47:48.557Z,95122.00
2023-02-19T18:50:16.553Z,95116.63
2023-02-19T18:52:43.298Z,95121.09
2023-02-19T18:55:10.966Z,95125.00
2023-02-19T18:57:37.872Z,95136.72
2023-02-19T19:00:09.123Z,95129.91
2023-02-19T19:02:48.263Z,95132.50
2023-02-19T19:05:22.710Z,95136.97
2023-02-19T19:07:51.466Z,95149.91
2023-02-19T19:10:18.911Z,95155.63
2023-02-19T19:12:45.817Z,95146.63
2023-02-19T19:15:12.760Z,95156.91
2023-02-19T19:17:40.526Z,95164.59
2023-02-19T19:20:08.463Z,95176.25
2023-02-19T19:22:35.601Z,95178.44
2023-02-19T19:25:02.405Z,95178.59
2023-02-19T19:27:30.188Z,95168.25
2023-02-19T19:29:58.159Z,95179.66
2023-02-19T19:32:24.985Z,95200.09
2023-02-19T19:34:51.985Z,95183.78
2023-02-19T19:37:18.875Z,95190.84
2023-02-19T19:39:45.697Z,95190.66
2023-02-19T19:42:12.462Z,95180.44
2023-02-19T19:44:39.884Z,95178.69
2023-02-19T19:47:06.551Z,95186.72
2023-02-19T19:49:33.538Z,95200.47
2023-02-19T19:52:01.261Z,95202.81
2023-02-19T19:54:28.926Z,95202.16
2023-02-19T19:56:55.830Z,95211.84
2023-02-19T19:59:23.138Z,95209.53
2023-02-19T20:01:52.240Z,95203.81
2023-02-19T20:04:21.828Z,95217.75
2023-02-19T20:06:48.813Z,95201.97
2023-02-19T20:09:16.630Z,95204.22
2023-02-19T20:11:53.743Z,95225.63
2023-02-19T20:14:23.487Z,95228.56
2023-02-19T20:16:51.691Z,95219.34
2023-02-19T20:19:20.250Z,95227.84
2023-02-19T20:21:49.483Z,95233.34
2023-02-19T20:24:26.026Z,95236.19
2023-02-19T20:27:01.938Z,95241.03
2023-02-19T20:29:33.761Z,95237.94
2023-02-19T20:32:03.595Z,95244.09
2023-02-19T20:34:30.796Z,95244.97
2023-02-19T20:36:57.970Z,95245.19
2023-02-19T20:39:28.887Z,95252.41
2023-02-19T20:41:56.918Z,95245.06
2023-02-19T20:44:24.580Z,95250.38
2023-02-19T20:46:53.488Z,95253.91
2023-02-19T20:49:24.913Z,95251.41
2023-02-19T20:52:01.040Z,95260.19
2023-02-19T20:54:30.833Z,95266.06
2023-02-19T20:57:00.117Z,95271.81
2023-02-19T20:59:31.041Z,95278.25
2023-02-19T21:01:59.150Z,95273.41
2023-02-19T21:04:26.441Z,95277.13
2023-02-19T21:06:53.650Z,95276.06
2023-02-19T21:09:21.619Z,95266.88
2023-02-19T21:11:49.245Z,95283.34
2023-02-19T21:14:16.228Z,95276.03
2023-02-19T21:16:43.481Z,95280.41
2023-02-19T21:19:10.320Z,95271.84
2023-02-19T21:21:39.372Z,95286.00
2023-02-19T21:24:06.845Z,95275.81
2023-02-19T21:26:36.506Z,95283.28
2023-02-19T21:29:05.799Z,95273.88
2023-02-19T21:31:37.933Z,95285.88
2023-02-19T21:34:07.523Z,95287.63
2023-02-19T21:36:34.599Z,95292.97
2023-02-19T21:39:01.421Z,95302.69
2023-02-19T21:41:28.608Z,95306.78
2023-02-19T21:43:55.806Z,95301.28
2023-02-19T21:46:23.645Z,95307.94
2023-02-19T21:48:52.555Z,95297.59
2023-02-19T21:51:21.021Z,95303.38
2023-02-19T21:53:47.942Z,95310.84
2023-02-19T21:56:23.319Z,95317.50
2023-02-19T21:58:50.121Z,95318.78
2023-02-19T22:01:25.761Z,95304.78
2023-02-19T22:03:52.758Z,95319.78
2023-02-19T22:06:22.507Z,95322.84
2023-02-19T22:08:49.429Z,95322.00
2023-02-19T22:11:16.751Z,95321.81
2023-02-19T22:13:43.662Z,95332.97
2023-02-19T22:16:11.106Z,95329.50
2023-02-19T22:18:37.950Z,95318.69
2023-02-19T22:21:06.532Z,95326.91
2023-02-19T22:23:33.280Z,95341.38
2023-02-19T22:26:00.135Z,95345.69
2023-02-19T22:28:26.835Z,95337.84
2023-02-19T22:30:53.556Z,95359.22
2023-02-19T22:33:20.496Z,95341.88
2023-02-19T22:35:47.169Z,95351.28
2023-02-19T22:38:13.937Z,95375.06
2023-02-19T22:40:40.690Z,95374.81
2023-02-19T22:43:07.346Z,95367.25
2023-02-19T22:45:34.335Z,95377.91
2023-02-19T22:48:02.080Z,95388.00
2023-02-19T22:50:28.832Z,95388.44
2023-02-19T22:52:55.792Z,95390.97
2023-02-19T22:55:22.541Z,95392.50
2023-02-19T22:57:49.346Z,95400.97
2023-02-19T23:00:19.275Z,95382.72
2023-02-19T23:02:48.293Z,95378.56
2023-02-19T23:05:16.529Z,95371.09
2023-02-19T23:07:44.810Z,95368.47
2023-02-19T23:10:12.933Z,95357.31
2023-02-19T23:12:41.120Z,95366.31
2023-02-19T23:15:09.311Z,95353.22
2023-02-19T23:17:36.392Z,95346.22
2023-02-19T23:20:03.924Z,95356.63
2023-02-19T23:22:30.776Z,95361.53
2023-02-19T23:24:57.621Z,95363.50
2023-02-19T23:27:26.682Z,95365.31
2023-02-19T23:29:53.330Z,95370.00
2023-02-19T23:32:21.052Z,95369.50
2023-02-19T23:34:48.139Z,95365.47
2023-02-19T23:37:15.434Z,95360.94
2023-02-19T23:39:42.343Z,95370.25
2023-02-19T23:42:15.082Z,95369.50
2023-02-19T23:44:42.341Z,95369.28
2023-02-19T23:47:09.572Z,95365.16
2023-02-19T23:49:36.487Z,95364.03
2023-02-19T23:52:03.540Z,95369.47
2023-02-19T23:54:30.464Z,95379.44
2023-02-19T23:56:58.451Z,95384.81
2023-02-19T23:59:25.213Z,95387.91
